sensor_id;sensor_type;location;lat;lon;timestamp;temperature;humidity
39021;DHT22;25188;51.958;5.842;2023-04-08T00:01:01;8.40;99.90
39021;DHT22;25188;51.958;5.842;2023-04-08T00:03:27;8.30;99.90
39021;DHT22;25188;51.958;5.842;2023-04-08T00:05:53;8.30;99.90
39021;DHT22;25188;51.958;5.842;2023-04-08T00:08:18;8.30;99.90
39021;DHT22;25188;51.958;5.842;2023-04-08T00:10:44;8.30;99.90
39021;DHT22;25188;51.958;5.842;2023-04-08T00:13:10;8.20;99.90
39021;DHT22;25188;51.958;5.842;2023-04-08T00:15:36;8.20;99.90
39021;DHT22;25188;51.958;5.842;2023-04-08T00:18:02;8.30;99.90
39021;DHT22;25188;51.958;5.842;2023-04-08T00:20:37;8.20;99.90
39021;DHT22;25188;51.958;5.842;2023-04-08T00:23:02;8.20;99.90
39021;DHT22;25188;51.958;5.842;2023-04-08T00:25:28;8.20;99.90
39021;DHT22;25188;51.958;5.842;2023-04-08T00:27:53;8.20;99.90
39021;DHT22;25188;51.958;5.842;2023-04-08T00:30:19;8.10;99.90
39021;DHT22;25188;51.958;5.842;2023-04-08T00:32:45;8.10;99.90
39021;DHT22;25188;51.958;5.842;2023-04-08T00:35:11;8.10;99.90
39021;DHT22;25188;51.958;5.842;2023-04-08T00:37:37;8.10;99.90
39021;DHT22;25188;51.958;5.842;2023-04-08T00:40:03;8.00;99.90
39021;DHT22;25188;51.958;5.842;2023-04-08T00:42:29;8.00;99.90
39021;DHT22;25188;51.958;5.842;2023-04-08T00:44:55;8.00;99.90
39021;DHT22;25188;51.958;5.842;2023-04-08T00:47:21;7.90;99.90
39021;DHT22;25188;51.958;5.842;2023-04-08T00:49:47;7.90;99.90
39021;DHT22;25188;51.958;5.842;2023-04-08T00:52:12;7.90;99.90
39021;DHT22;25188;51.958;5.842;2023-04-08T00:54:38;7.90;99.90
39021;DHT22;25188;51.958;5.842;2023-04-08T00:57:05;7.90;99.90
39021;DHT22;25188;51.958;5.842;2023-04-08T00:59:31;7.80;99.90
39021;DHT22;25188;51.958;5.842;2023-04-08T01:05:49;7.70;99.90
39021;DHT22;25188;51.958;5.842;2023-04-08T01:07:52;7.70;99.90
39021;DHT22;25188;51.958;5.842;2023-04-08T01:10:21;7.70;99.90
39021;DHT22;25188;51.958;5.842;2023-04-08T01:12:55;7.70;99.90
39021;DHT22;25188;51.958;5.842;2023-04-08T01:15:23;7.60;99.90
39021;DHT22;25188;51.958;5.842;2023-04-08T01:17:53;7.50;99.90
39021;DHT22;25188;51.958;5.842;2023-04-08T01:20:19;7.50;99.90
39021;DHT22;25188;51.958;5.842;2023-04-08T01:23:10;7.50;99.90
39021;DHT22;25188;51.958;5.842;2023-04-08T01:25:38;7.50;99.90
39021;DHT22;25188;51.958;5.842;2023-04-08T01:28:12;7.40;99.90
39021;DHT22;25188;51.958;5.842;2023-04-08T01:30:40;7.40;99.90
39021;DHT22;25188;51.958;5.842;2023-04-08T01:33:09;7.30;99.90
39021;DHT22;25188;51.958;5.842;2023-04-08T01:35:35;7.30;99.90
39021;DHT22;25188;51.958;5.842;2023-04-08T01:38:02;7.30;99.90
39021;DHT22;25188;51.958;5.842;2023-04-08T01:40:30;7.30;99.90
39021;DHT22;25188;51.958;5.842;2023-04-08T01:42:57;7.30;99.90
39021;DHT22;25188;51.958;5.842;2023-04-08T01:45:24;7.30;99.90
39021;DHT22;25188;51.958;5.842;2023-04-08T01:47:51;7.40;99.90
39021;DHT22;25188;51.958;5.842;2023-04-08T01:50:18;7.30;99.90
39021;DHT22;25188;51.958;5.842;2023-04-08T01:52:45;7.10;99.90
39021;DHT22;25188;51.958;5.842;2023-04-08T01:55:12;7.20;99.90
39021;DHT22;25188;51.958;5.842;2023-04-08T01:57:38;7.20;99.90
39021;DHT22;25188;51.958;5.842;2023-04-08T02:00:11;7.20;99.90
39021;DHT22;25188;51.958;5.842;2023-04-08T02:02:37;7.20;99.90
39021;DHT22;25188;51.958;5.842;2023-04-08T02:05:05;7.10;99.90
39021;DHT22;25188;51.958;5.842;2023-04-08T02:07:31;7.10;99.90
39021;DHT22;25188;51.958;5.842;2023-04-08T02:09:57;7.10;99.90
39021;DHT22;25188;51.958;5.842;2023-04-08T02:12:23;7.10;99.90
39021;DHT22;25188;51.958;5.842;2023-04-08T02:14:49;7.00;99.90
39021;DHT22;25188;51.958;5.842;2023-04-08T02:17:26;6.90;99.90
39021;DHT22;25188;51.958;5.842;2023-04-08T02:20:06;6.90;99.90
39021;DHT22;25188;51.958;5.842;2023-04-08T02:25:22;6.90;99.90
39021;DHT22;25188;51.958;5.842;2023-04-08T02:27:49;6.90;99.90
39021;DHT22;25188;51.958;5.842;2023-04-08T02:30:16;6.90;99.90
39021;DHT22;25188;51.958;5.842;2023-04-08T02:32:43;6.80;99.90
39021;DHT22;25188;51.958;5.842;2023-04-08T02:35:11;6.70;99.90
39021;DHT22;25188;51.958;5.842;2023-04-08T02:37:38;6.70;99.90
39021;DHT22;25188;51.958;5.842;2023-04-08T02:40:04;6.60;99.90
39021;DHT22;25188;51.958;5.842;2023-04-08T02:42:46;6.60;99.90
39021;DHT22;25188;51.958;5.842;2023-04-08T02:45:11;6.50;99.90
39021;DHT22;25188;51.958;5.842;2023-04-08T02:47:37;6.40;99.90
39021;DHT22;25188;51.958;5.842;2023-04-08T02:50:03;6.40;99.90
39021;DHT22;25188;51.958;5.842;2023-04-08T02:52:28;6.40;99.90
39021;DHT22;25188;51.958;5.842;2023-04-08T02:54:54;6.30;99.90
39021;DHT22;25188;51.958;5.842;2023-04-08T02:57:20;6.20;99.90
39021;DHT22;25188;51.958;5.842;2023-04-08T02:59:45;6.20;99.90
39021;DHT22;25188;51.958;5.842;2023-04-08T03:02:11;6.10;99.90
39021;DHT22;25188;51.958;5.842;2023-04-08T03:04:36;6.10;99.90
39021;DHT22;25188;51.958;5.842;2023-04-08T03:07:02;6.00;99.90
39021;DHT22;25188;51.958;5.842;2023-04-08T03:09:28;6.00;99.90
39021;DHT22;25188;51.958;5.842;2023-04-08T03:11:53;5.90;99.90
39021;DHT22;25188;51.958;5.842;2023-04-08T03:14:19;5.90;99.90
39021;DHT22;25188;51.958;5.842;2023-04-08T03:16:45;5.90;99.90
39021;DHT22;25188;51.958;5.842;2023-04-08T03:19:11;5.80;99.90
39021;DHT22;25188;51.958;5.842;2023-04-08T03:21:37;5.70;99.90
39021;DHT22;25188;51.958;5.842;2023-04-08T03:24:03;5.70;99.90
39021;DHT22;25188;51.958;5.842;2023-04-08T03:26:28;5.70;99.90
39021;DHT22;25188;51.958;5.842;2023-04-08T03:28:54;5.60;99.90
39021;DHT22;25188;51.958;5.842;2023-04-08T03:31:19;5.60;99.90
39021;DHT22;25188;51.958;5.842;2023-04-08T03:33:45;5.60;99.90
39021;DHT22;25188;51.958;5.842;2023-04-08T03:36:11;5.50;99.90
39021;DHT22;25188;51.958;5.842;2023-04-08T03:38:37;5.50;99.90
39021;DHT22;25188;51.958;5.842;2023-04-08T03:41:03;5.40;99.90
39021;DHT22;25188;51.958;5.842;2023-04-08T03:43:28;5.40;99.90
39021;DHT22;25188;51.958;5.842;2023-04-08T03:45:54;5.40;99.90
39021;DHT22;25188;51.958;5.842;2023-04-08T03:48:20;5.30;99.90
39021;DHT22;25188;51.958;5.842;2023-04-08T03:50:46;5.30;99.90
39021;DHT22;25188;51.958;5.842;2023-04-08T03:53:11;5.30;99.90
39021;DHT22;25188;51.958;5.842;2023-04-08T03:55:38;5.30;99.90
39021;DHT22;25188;51.958;5.842;2023-04-08T03:58:03;5.30;99.90
39021;DHT22;25188;51.958;5.842;2023-04-08T04:00:29;5.20;99.90
39021;DHT22;25188;51.958;5.842;2023-04-08T04:02:55;5.20;99.90
39021;DHT22;25188;51.958;5.842;2023-04-08T04:05:21;5.10;99.90
39021;DHT22;25188;51.958;5.842;2023-04-08T04:07:46;5.10;99.90
39021;DHT22;25188;51.958;5.842;2023-04-08T04:10:12;5.00;99.90
39021;DHT22;25188;51.958;5.842;2023-04-08T04:12:38;5.00;99.90
39021;DHT22;25188;51.958;5.842;2023-04-08T04:15:04;5.00;99.90
39021;DHT22;25188;51.958;5.842;2023-04-08T04:17:29;5.00;99.90
39021;DHT22;25188;51.958;5.842;2023-04-08T04:19:55;4.90;99.90
39021;DHT22;25188;51.958;5.842;2023-04-08T04:22:21;4.90;99.90
39021;DHT22;25188;51.958;5.842;2023-04-08T04:24:47;4.90;99.90
39021;DHT22;25188;51.958;5.842;2023-04-08T04:27:14;4.90;99.90
39021;DHT22;25188;51.958;5.842;2023-04-08T04:29:41;5.00;99.90
39021;DHT22;25188;51.958;5.842;2023-04-08T04:32:07;4.90;99.90
39021;DHT22;25188;51.958;5.842;2023-04-08T04:34:33;4.80;99.90
39021;DHT22;25188;51.958;5.842;2023-04-08T04:36:59;4.80;99.90
39021;DHT22;25188;51.958;5.842;2023-04-08T04:39:25;4.80;99.90
39021;DHT22;25188;51.958;5.842;2023-04-08T04:41:50;4.70;99.90
39021;DHT22;25188;51.958;5.842;2023-04-08T04:44:16;4.80;99.90
39021;DHT22;25188;51.958;5.842;2023-04-08T04:46:42;4.70;99.90
39021;DHT22;25188;51.958;5.842;2023-04-08T04:49:08;4.60;99.90
39021;DHT22;25188;51.958;5.842;2023-04-08T04:51:33;4.60;99.90
39021;DHT22;25188;51.958;5.842;2023-04-08T04:53:59;4.60;99.90
39021;DHT22;25188;51.958;5.842;2023-04-08T04:56:24;4.60;99.90
39021;DHT22;25188;51.958;5.842;2023-04-08T04:58:51;4.50;99.90
39021;DHT22;25188;51.958;5.842;2023-04-08T05:01:17;4.50;99.90
39021;DHT22;25188;51.958;5.842;2023-04-08T05:03:42;4.50;99.90
39021;DHT22;25188;51.958;5.842;2023-04-08T05:06:08;4.50;99.90
39021;DHT22;25188;51.958;5.842;2023-04-08T05:08:34;4.40;99.90
39021;DHT22;25188;51.958;5.842;2023-04-08T05:10:59;4.40;99.90
39021;DHT22;25188;51.958;5.842;2023-04-08T05:13:31;4.40;99.90
39021;DHT22;25188;51.958;5.842;2023-04-08T05:15:56;4.40;99.90
39021;DHT22;25188;51.958;5.842;2023-04-08T05:18:22;4.40;99.90
39021;DHT22;25188;51.958;5.842;2023-04-08T05:20:48;4.30;99.90
39021;DHT22;25188;51.958;5.842;2023-04-08T05:23:13;4.30;99.90
39021;DHT22;25188;51.958;5.842;2023-04-08T05:25:39;4.30;99.90
39021;DHT22;25188;51.958;5.842;2023-04-08T05:28:04;4.30;99.90
39021;DHT22;25188;51.958;5.842;2023-04-08T05:30:30;4.30;99.90
39021;DHT22;25188;51.958;5.842;2023-04-08T05:32:56;4.40;99.90
39021;DHT22;25188;51.958;5.842;2023-04-08T05:35:22;4.30;99.90
39021;DHT22;25188;51.958;5.842;2023-04-08T05:37:47;4.40;99.90
39021;DHT22;25188;51.958;5.842;2023-04-08T05:40:13;4.40;99.90
39021;DHT22;25188;51.958;5.842;2023-04-08T05:42:39;4.40;99.90
39021;DHT22;25188;51.958;5.842;2023-04-08T05:45:06;4.50;99.90
39021;DHT22;25188;51.958;5.842;2023-04-08T05:47:32;4.40;99.90
39021;DHT22;25188;51.958;5.842;2023-04-08T05:49:58;4.40;99.90
39021;DHT22;25188;51.958;5.842;2023-04-08T05:52:24;4.40;99.90
39021;DHT22;25188;51.958;5.842;2023-04-08T05:54:49;4.30;99.90
39021;DHT22;25188;51.958;5.842;2023-04-08T05:57:15;4.40;99.90
39021;DHT22;25188;51.958;5.842;2023-04-08T05:59:41;4.50;99.90
39021;DHT22;25188;51.958;5.842;2023-04-08T06:02:06;4.50;99.90
39021;DHT22;25188;51.958;5.842;2023-04-08T06:04:32;4.50;99.90
39021;DHT22;25188;51.958;5.842;2023-04-08T06:06:58;4.50;99.90
39021;DHT22;25188;51.958;5.842;2023-04-08T06:09:25;4.50;99.90
39021;DHT22;25188;51.958;5.842;2023-04-08T06:11:51;4.60;99.90
39021;DHT22;25188;51.958;5.842;2023-04-08T06:14:17;4.60;99.90
39021;DHT22;25188;51.958;5.842;2023-04-08T06:16:42;4.60;99.90
39021;DHT22;25188;51.958;5.842;2023-04-08T06:19:08;4.70;99.90
39021;DHT22;25188;51.958;5.842;2023-04-08T06:21:34;4.70;99.90
39021;DHT22;25188;51.958;5.842;2023-04-08T06:23:59;4.70;99.90
39021;DHT22;25188;51.958;5.842;2023-04-08T06:26:25;4.80;99.90
39021;DHT22;25188;51.958;5.842;2023-04-08T06:28:52;4.80;99.90
39021;DHT22;25188;51.958;5.842;2023-04-08T06:31:18;4.90;99.90
39021;DHT22;25188;51.958;5.842;2023-04-08T06:33:43;4.90;99.90
39021;DHT22;25188;51.958;5.842;2023-04-08T06:36:09;4.90;99.90
39021;DHT22;25188;51.958;5.842;2023-04-08T06:38:35;4.90;99.90
39021;DHT22;25188;51.958;5.842;2023-04-08T06:41:05;5.00;99.90
39021;DHT22;25188;51.958;5.842;2023-04-08T06:43:31;5.00;99.90
39021;DHT22;25188;51.958;5.842;2023-04-08T06:45:58;5.10;99.90
39021;DHT22;25188;51.958;5.842;2023-04-08T06:48:24;5.10;99.90
39021;DHT22;25188;51.958;5.842;2023-04-08T06:50:55;5.20;99.90
39021;DHT22;25188;51.958;5.842;2023-04-08T06:53:25;5.20;99.90
39021;DHT22;25188;51.958;5.842;2023-04-08T06:55:50;5.30;99.90
39021;DHT22;25188;51.958;5.842;2023-04-08T06:58:16;5.30;99.90
39021;DHT22;25188;51.958;5.842;2023-04-08T07:00:42;5.40;99.90
39021;DHT22;25188;51.958;5.842;2023-04-08T07:03:08;5.40;99.90
39021;DHT22;25188;51.958;5.842;2023-04-08T07:05:37;5.50;99.90
39021;DHT22;25188;51.958;5.842;2023-04-08T07:08:03;5.50;99.90
39021;DHT22;25188;51.958;5.842;2023-04-08T07:10:29;5.60;99.90
39021;DHT22;25188;51.958;5.842;2023-04-08T07:12:55;5.70;99.90
39021;DHT22;25188;51.958;5.842;2023-04-08T07:15:21;5.70;99.90
39021;DHT22;25188;51.958;5.842;2023-04-08T07:17:46;5.90;99.90
39021;DHT22;25188;51.958;5.842;2023-04-08T07:20:12;5.80;99.90
39021;DHT22;25188;51.958;5.842;2023-04-08T07:22:39;5.90;99.90
39021;DHT22;25188;51.958;5.842;2023-04-08T07:25:05;6.00;99.90
39021;DHT22;25188;51.958;5.842;2023-04-08T07:27:32;6.00;99.90
39021;DHT22;25188;51.958;5.842;2023-04-08T07:29:58;6.10;99.90
39021;DHT22;25188;51.958;5.842;2023-04-08T07:32:23;6.20;99.90
39021;DHT22;25188;51.958;5.842;2023-04-08T07:34:49;6.20;99.90
39021;DHT22;25188;51.958;5.842;2023-04-08T07:37:14;6.30;99.90
39021;DHT22;25188;51.958;5.842;2023-04-08T07:39:40;6.30;99.90
39021;DHT22;25188;51.958;5.842;2023-04-08T07:42:06;6.40;99.90
39021;DHT22;25188;51.958;5.842;2023-04-08T07:44:31;6.50;99.90
39021;DHT22;25188;51.958;5.842;2023-04-08T07:46:57;6.50;99.90
39021;DHT22;25188;51.958;5.842;2023-04-08T07:49:23;6.60;99.90
39021;DHT22;25188;51.958;5.842;2023-04-08T07:51:48;6.70;99.90
39021;DHT22;25188;51.958;5.842;2023-04-08T07:54:14;6.70;99.90
39021;DHT22;25188;51.958;5.842;2023-04-08T07:56:42;6.80;99.90
39021;DHT22;25188;51.958;5.842;2023-04-08T07:59:09;6.90;99.90
39021;DHT22;25188;51.958;5.842;2023-04-08T08:01:35;6.90;99.90
39021;DHT22;25188;51.958;5.842;2023-04-08T08:04:01;7.00;99.90
39021;DHT22;25188;51.958;5.842;2023-04-08T08:06:27;7.00;99.90
39021;DHT22;25188;51.958;5.842;2023-04-08T08:08:53;7.10;99.90
39021;DHT22;25188;51.958;5.842;2023-04-08T08:11:19;7.20;99.90
39021;DHT22;25188;51.958;5.842;2023-04-08T08:13:45;7.20;99.90
39021;DHT22;25188;51.958;5.842;2023-04-08T08:16:11;7.30;99.90
39021;DHT22;25188;51.958;5.842;2023-04-08T08:18:37;7.40;99.90
39021;DHT22;25188;51.958;5.842;2023-04-08T08:21:04;7.50;99.90
39021;DHT22;25188;51.958;5.842;2023-04-08T08:23:30;7.60;99.90
39021;DHT22;25188;51.958;5.842;2023-04-08T08:26:06;7.60;99.90
39021;DHT22;25188;51.958;5.842;2023-04-08T08:28:32;7.70;99.90
39021;DHT22;25188;51.958;5.842;2023-04-08T08:30:58;7.80;99.90
39021;DHT22;25188;51.958;5.842;2023-04-08T08:33:24;7.90;99.90
39021;DHT22;25188;51.958;5.842;2023-04-08T08:35:50;8.00;99.90
39021;DHT22;25188;51.958;5.842;2023-04-08T08:38:16;8.10;99.90
39021;DHT22;25188;51.958;5.842;2023-04-08T08:40:43;8.20;99.90
39021;DHT22;25188;51.958;5.842;2023-04-08T08:43:10;8.30;99.90
39021;DHT22;25188;51.958;5.842;2023-04-08T08:45:40;8.30;99.90
39021;DHT22;25188;51.958;5.842;2023-04-08T08:48:06;8.40;99.90
39021;DHT22;25188;51.958;5.842;2023-04-08T08:50:35;8.60;99.90
39021;DHT22;25188;51.958;5.842;2023-04-08T08:53:01;8.70;99.90
39021;DHT22;25188;51.958;5.842;2023-04-08T08:55:29;8.80;99.90
39021;DHT22;25188;51.958;5.842;2023-04-08T08:57:56;8.90;99.90
39021;DHT22;25188;51.958;5.842;2023-04-08T09:03:18;9.10;99.90
39021;DHT22;25188;51.958;5.842;2023-04-08T09:05:53;9.20;99.90
39021;DHT22;25188;51.958;5.842;2023-04-08T09:08:32;9.30;99.90
39021;DHT22;25188;51.958;5.842;2023-04-08T09:11:19;9.40;99.90
39021;DHT22;25188;51.958;5.842;2023-04-08T09:13:46;9.50;99.90
39021;DHT22;25188;51.958;5.842;2023-04-08T09:16:16;9.60;99.90
39021;DHT22;25188;51.958;5.842;2023-04-08T09:18:44;9.70;99.90
39021;DHT22;25188;51.958;5.842;2023-04-08T09:21:12;9.80;99.90
39021;DHT22;25188;51.958;5.842;2023-04-08T09:23:42;9.80;99.90
39021;DHT22;25188;51.958;5.842;2023-04-08T09:26:18;9.90;99.90
39021;DHT22;25188;51.958;5.842;2023-04-08T09:31:25;10.20;99.90
39021;DHT22;25188;51.958;5.842;2023-04-08T09:33:55;10.30;99.90
39021;DHT22;25188;51.958;5.842;2023-04-08T09:36:21;10.40;99.90
39021;DHT22;25188;51.958;5.842;2023-04-08T09:38:47;10.50;99.90
39021;DHT22;25188;51.958;5.842;2023-04-08T09:41:15;10.60;99.90
39021;DHT22;25188;51.958;5.842;2023-04-08T09:43:43;10.70;99.90
39021;DHT22;25188;51.958;5.842;2023-04-08T09:46:14;10.80;99.90
39021;DHT22;25188;51.958;5.842;2023-04-08T09:48:47;10.90;99.70
39021;DHT22;25188;51.958;5.842;2023-04-08T09:51:16;11.00;98.90
39021;DHT22;25188;51.958;5.842;2023-04-08T09:53:46;11.10;98.20
39021;DHT22;25188;51.958;5.842;2023-04-08T09:56:13;11.20;97.90
39021;DHT22;25188;51.958;5.842;2023-04-08T09:58:48;11.30;96.80
39021;DHT22;25188;51.958;5.842;2023-04-08T10:01:21;11.40;96.40
39021;DHT22;25188;51.958;5.842;2023-04-08T10:03:53;11.50;96.10
39021;DHT22;25188;51.958;5.842;2023-04-08T10:06:19;11.60;95.30
39021;DHT22;25188;51.958;5.842;2023-04-08T10:08:46;11.70;95.10
39021;DHT22;25188;51.958;5.842;2023-04-08T10:11:14;11.90;94.80
39021;DHT22;25188;51.958;5.842;2023-04-08T10:13:40;12.20;94.70
39021;DHT22;25188;51.958;5.842;2023-04-08T10:18:49;12.90;93.30
39021;DHT22;25188;51.958;5.842;2023-04-08T10:21:38;13.40;92.50
39021;DHT22;25188;51.958;5.842;2023-04-08T10:24:09;13.90;91.70
39021;DHT22;25188;51.958;5.842;2023-04-08T10:26:42;14.50;92.30
39021;DHT22;25188;51.958;5.842;2023-04-08T10:29:31;15.10;92.30
39021;DHT22;25188;51.958;5.842;2023-04-08T10:31:57;16.00;91.20
39021;DHT22;25188;51.958;5.842;2023-04-08T10:34:25;16.80;91.60
39021;DHT22;25188;51.958;5.842;2023-04-08T10:36:52;17.70;90.80
39021;DHT22;25188;51.958;5.842;2023-04-08T10:39:20;18.40;89.00
39021;DHT22;25188;51.958;5.842;2023-04-08T10:41:48;19.20;84.30
39021;DHT22;25188;51.958;5.842;2023-04-08T10:44:24;20.00;81.20
39021;DHT22;25188;51.958;5.842;2023-04-08T10:46:53;20.70;76.60
39021;DHT22;25188;51.958;5.842;2023-04-08T10:49:19;21.00;75.00
39021;DHT22;25188;51.958;5.842;2023-04-08T10:51:47;21.00;71.80
39021;DHT22;25188;51.958;5.842;2023-04-08T10:54:15;20.80;69.40
39021;DHT22;25188;51.958;5.842;2023-04-08T10:56:46;20.60;67.10
39021;DHT22;25188;51.958;5.842;2023-04-08T10:59:13;20.40;65.00
39021;DHT22;25188;51.958;5.842;2023-04-08T11:01:41;20.30;63.00
39021;DHT22;25188;51.958;5.842;2023-04-08T11:04:13;20.10;61.50
39021;DHT22;25188;51.958;5.842;2023-04-08T11:06:41;19.90;60.20
39021;DHT22;25188;51.958;5.842;2023-04-08T11:09:07;19.80;59.80
39021;DHT22;25188;51.958;5.842;2023-04-08T11:11:33;19.70;58.70
39021;DHT22;25188;51.958;5.842;2023-04-08T11:14:00;19.70;58.60
39021;DHT22;25188;51.958;5.842;2023-04-08T11:16:26;19.70;57.80
39021;DHT22;25188;51.958;5.842;2023-04-08T11:18:53;19.80;57.60
39021;DHT22;25188;51.958;5.842;2023-04-08T11:21:22;20.00;56.70
39021;DHT22;25188;51.958;5.842;2023-04-08T11:23:51;20.50;56.40
39021;DHT22;25188;51.958;5.842;2023-04-08T11:26:18;21.00;55.40
39021;DHT22;25188;51.958;5.842;2023-04-08T11:28:44;21.60;54.30
39021;DHT22;25188;51.958;5.842;2023-04-08T11:31:11;21.90;54.10
39021;DHT22;25188;51.958;5.842;2023-04-08T11:33:42;22.10;54.10
39021;DHT22;25188;51.958;5.842;2023-04-08T11:36:11;22.40;54.00
39021;DHT22;25188;51.958;5.842;2023-04-08T11:38:39;22.60;52.80
39021;DHT22;25188;51.958;5.842;2023-04-08T11:41:08;22.50;51.80
39021;DHT22;25188;51.958;5.842;2023-04-08T11:43:34;22.50;50.80
39021;DHT22;25188;51.958;5.842;2023-04-08T11:46:08;22.30;50.40
39021;DHT22;25188;51.958;5.842;2023-04-08T11:48:35;22.10;49.10
39021;DHT22;25188;51.958;5.842;2023-04-08T12:57:29;24.00;45.60
39021;DHT22;25188;51.958;5.842;2023-04-08T12:59:56;23.70;45.80
39021;DHT22;25188;51.958;5.842;2023-04-08T13:02:22;23.50;44.90
39021;DHT22;25188;51.958;5.842;2023-04-08T13:04:49;23.30;44.10
39021;DHT22;25188;51.958;5.842;2023-04-08T13:07:18;23.10;44.20
39021;DHT22;25188;51.958;5.842;2023-04-08T13:09:44;22.90;44.40
39021;DHT22;25188;51.958;5.842;2023-04-08T13:12:10;23.00;44.90
39021;DHT22;25188;51.958;5.842;2023-04-08T13:14:36;23.00;45.10
39021;DHT22;25188;51.958;5.842;2023-04-08T13:17:03;23.00;44.90
39021;DHT22;25188;51.958;5.842;2023-04-08T13:19:29;22.80;43.20
39021;DHT22;25188;51.958;5.842;2023-04-08T13:21:55;22.50;42.80
39021;DHT22;25188;51.958;5.842;2023-04-08T13:24:23;22.10;42.60
39021;DHT22;25188;51.958;5.842;2023-04-08T13:26:49;21.60;43.30
39021;DHT22;25188;51.958;5.842;2023-04-08T13:29:15;21.20;43.70
39021;DHT22;25188;51.958;5.842;2023-04-08T13:31:41;20.90;44.10
39021;DHT22;25188;51.958;5.842;2023-04-08T13:34:07;20.60;44.00
39021;DHT22;25188;51.958;5.842;2023-04-08T13:36:32;20.50;44.80
39021;DHT22;25188;51.958;5.842;2023-04-08T13:38:58;20.50;45.50
39021;DHT22;25188;51.958;5.842;2023-04-08T13:41:23;20.50;45.50
39021;DHT22;25188;51.958;5.842;2023-04-08T13:43:49;20.50;45.70
39021;DHT22;25188;51.958;5.842;2023-04-08T13:46:15;20.60;45.90
39021;DHT22;25188;51.958;5.842;2023-04-08T13:48:41;20.70;45.70
39021;DHT22;25188;51.958;5.842;2023-04-08T13:51:06;20.90;45.90
39021;DHT22;25188;51.958;5.842;2023-04-08T13:53:32;21.10;45.90
39021;DHT22;25188;51.958;5.842;2023-04-08T13:55:58;21.40;46.30
39021;DHT22;25188;51.958;5.842;2023-04-08T13:58:24;21.90;46.70
39021;DHT22;25188;51.958;5.842;2023-04-08T14:00:51;22.10;46.30
39021;DHT22;25188;51.958;5.842;2023-04-08T14:03:16;22.20;46.10
39021;DHT22;25188;51.958;5.842;2023-04-08T14:05:42;22.10;45.80
39021;DHT22;25188;51.958;5.842;2023-04-08T14:08:08;22.00;45.90
39021;DHT22;25188;51.958;5.842;2023-04-08T14:10:33;21.90;46.10
39021;DHT22;25188;51.958;5.842;2023-04-08T14:13:00;21.90;45.40
39021;DHT22;25188;51.958;5.842;2023-04-08T14:15:25;21.90;44.20
39021;DHT22;25188;51.958;5.842;2023-04-08T14:17:54;21.80;43.60
39021;DHT22;25188;51.958;5.842;2023-04-08T14:20:20;21.60;43.90
39021;DHT22;25188;51.958;5.842;2023-04-08T14:22:45;21.40;44.40
39021;DHT22;25188;51.958;5.842;2023-04-08T14:25:11;21.40;44.90
39021;DHT22;25188;51.958;5.842;2023-04-08T14:27:37;21.70;45.30
39021;DHT22;25188;51.958;5.842;2023-04-08T14:30:03;22.00;44.20
39021;DHT22;25188;51.958;5.842;2023-04-08T14:32:28;22.20;43.10
39021;DHT22;25188;51.958;5.842;2023-04-08T14:34:54;22.40;43.50
39021;DHT22;25188;51.958;5.842;2023-04-08T14:37:20;22.50;43.20
39021;DHT22;25188;51.958;5.842;2023-04-08T14:39:45;22.80;43.90
39021;DHT22;25188;51.958;5.842;2023-04-08T14:42:11;23.20;44.10
39021;DHT22;25188;51.958;5.842;2023-04-08T14:44:37;23.70;43.90
39021;DHT22;25188;51.958;5.842;2023-04-08T14:47:03;24.20;43.20
39021;DHT22;25188;51.958;5.842;2023-04-08T14:49:28;24.60;43.00
39021;DHT22;25188;51.958;5.842;2023-04-08T14:51:54;25.00;42.60
39021;DHT22;25188;51.958;5.842;2023-04-08T14:54:20;25.30;42.30
39021;DHT22;25188;51.958;5.842;2023-04-08T14:56:46;25.60;41.80
39021;DHT22;25188;51.958;5.842;2023-04-08T14:59:11;25.90;41.80
39021;DHT22;25188;51.958;5.842;2023-04-08T15:01:37;26.20;41.50
39021;DHT22;25188;51.958;5.842;2023-04-08T15:04:03;26.30;42.00
39021;DHT22;25188;51.958;5.842;2023-04-08T15:06:28;26.60;41.30
39021;DHT22;25188;51.958;5.842;2023-04-08T15:08:55;26.80;41.00
39021;DHT22;25188;51.958;5.842;2023-04-08T15:11:21;26.90;40.90
39021;DHT22;25188;51.958;5.842;2023-04-08T15:13:48;27.10;40.70
39021;DHT22;25188;51.958;5.842;2023-04-08T15:16:13;27.30;40.70
39021;DHT22;25188;51.958;5.842;2023-04-08T15:18:39;27.30;40.60
39021;DHT22;25188;51.958;5.842;2023-04-08T15:21:06;27.40;40.40
39021;DHT22;25188;51.958;5.842;2023-04-08T15:23:32;27.50;40.40
39021;DHT22;25188;51.958;5.842;2023-04-08T15:25:57;27.50;40.40
39021;DHT22;25188;51.958;5.842;2023-04-08T15:28:23;27.50;40.40
39021;DHT22;25188;51.958;5.842;2023-04-08T15:30:49;27.60;40.20
39021;DHT22;25188;51.958;5.842;2023-04-08T15:33:14;27.60;40.10
39021;DHT22;25188;51.958;5.842;2023-04-08T15:35:44;27.50;40.00
39021;DHT22;25188;51.958;5.842;2023-04-08T15:38:10;27.40;40.10
39021;DHT22;25188;51.958;5.842;2023-04-08T15:40:36;27.30;40.30
39021;DHT22;25188;51.958;5.842;2023-04-08T15:43:02;27.40;40.40
39021;DHT22;25188;51.958;5.842;2023-04-08T15:45:28;27.30;40.30
39021;DHT22;25188;51.958;5.842;2023-04-08T15:47:54;27.20;40.40
39021;DHT22;25188;51.958;5.842;2023-04-08T15:50:19;27.10;40.30
39021;DHT22;25188;51.958;5.842;2023-04-08T15:52:45;26.60;40.00
39021;DHT22;25188;51.958;5.842;2023-04-08T15:55:11;26.00;40.60
39021;DHT22;25188;51.958;5.842;2023-04-08T15:57:36;25.30;41.20
39021;DHT22;25188;51.958;5.842;2023-04-08T16:00:09;24.70;42.10
39021;DHT22;25188;51.958;5.842;2023-04-08T16:02:35;24.10;43.10
39021;DHT22;25188;51.958;5.842;2023-04-08T16:05:01;23.60;43.70
39021;DHT22;25188;51.958;5.842;2023-04-08T16:07:27;23.10;44.40
39021;DHT22;25188;51.958;5.842;2023-04-08T16:09:52;22.80;45.00
39021;DHT22;25188;51.958;5.842;2023-04-08T16:12:18;22.60;45.60
39021;DHT22;25188;51.958;5.842;2023-04-08T16:14:44;22.30;46.10
39021;DHT22;25188;51.958;5.842;2023-04-08T16:17:11;22.00;47.30
39021;DHT22;25188;51.958;5.842;2023-04-08T16:19:37;21.80;47.00
39021;DHT22;25188;51.958;5.842;2023-04-08T16:22:03;21.50;47.40
39021;DHT22;25188;51.958;5.842;2023-04-08T16:24:28;21.20;48.00
39021;DHT22;25188;51.958;5.842;2023-04-08T16:26:54;21.00;48.60
39021;DHT22;25188;51.958;5.842;2023-04-08T16:29:20;20.60;49.20
39021;DHT22;25188;51.958;5.842;2023-04-08T16:31:47;20.50;50.20
39021;DHT22;25188;51.958;5.842;2023-04-08T16:34:13;20.30;50.50
39021;DHT22;25188;51.958;5.842;2023-04-08T16:36:39;20.10;51.10
39021;DHT22;25188;51.958;5.842;2023-04-08T16:39:04;19.80;51.60
39021;DHT22;25188;51.958;5.842;2023-04-08T16:41:30;19.60;51.70
39021;DHT22;25188;51.958;5.842;2023-04-08T16:43:55;19.40;52.20
39021;DHT22;25188;51.958;5.842;2023-04-08T16:46:22;19.20;52.70
39021;DHT22;25188;51.958;5.842;2023-04-08T16:48:47;19.00;53.10
39021;DHT22;25188;51.958;5.842;2023-04-08T16:51:13;18.80;53.30
39021;DHT22;25188;51.958;5.842;2023-04-08T16:53:39;18.70;54.60
39021;DHT22;25188;51.958;5.842;2023-04-08T16:56:14;18.60;54.40
39021;DHT22;25188;51.958;5.842;2023-04-08T16:58:41;18.50;54.70